sensor_id;sensor_type;location;lat;lon;timestamp;temperature;humidity
70826;SHT31;58446;41.490;22.098;2023-07-29T00:02:19;25.49;51.98
70826;SHT31;58446;41.490;22.098;2023-07-29T00:04:44;25.34;52.31
70826;SHT31;58446;41.490;22.098;2023-07-29T00:07:10;25.35;52.19
70826;SHT31;58446;41.490;22.098;2023-07-29T00:09:36;25.41;52.05
70826;SHT31;58446;41.490;22.098;2023-07-29T00:12:01;25.38;52.13
70826;SHT31;58446;41.490;22.098;2023-07-29T00:14:27;25.29;52.50
70826;SHT31;58446;41.490;22.098;2023-07-29T00:16:52;25.34;52.13
70826;SHT31;58446;41.490;22.098;2023-07-29T00:19:18;25.31;52.13
70826;SHT31;58446;41.490;22.098;2023-07-29T00:21:45;25.39;52.01
70826;SHT31;58446;41.490;22.098;2023-07-29T00:24:11;25.35;51.99
70826;SHT31;58446;41.490;22.098;2023-07-29T00:26:36;25.22;52.44
70826;SHT31;58446;41.490;22.098;2023-07-29T00:29:02;25.06;52.64
70826;SHT31;58446;41.490;22.098;2023-07-29T00:31:27;25.00;52.79
70826;SHT31;58446;41.490;22.098;2023-07-29T00:33:53;25.04;52.57
70826;SHT31;58446;41.490;22.098;2023-07-29T00:36:19;25.15;52.37
70826;SHT31;58446;41.490;22.098;2023-07-29T00:38:45;25.17;52.28
70826;SHT31;58446;41.490;22.098;2023-07-29T00:41:11;25.11;52.41
70826;SHT31;58446;41.490;22.098;2023-07-29T00:43:39;24.92;52.78
70826;SHT31;58446;41.490;22.098;2023-07-29T00:46:04;24.90;52.83
70826;SHT31;58446;41.490;22.098;2023-07-29T00:48:31;24.81;52.81
70826;SHT31;58446;41.490;22.098;2023-07-29T00:50:56;24.76;52.87
70826;SHT31;58446;41.490;22.098;2023-07-29T00:53:22;24.74;52.95
70826;SHT31;58446;41.490;22.098;2023-07-29T00:55:48;24.83;52.67
70826;SHT31;58446;41.490;22.098;2023-07-29T00:58:14;24.63;53.45
70826;SHT31;58446;41.490;22.098;2023-07-29T01:00:40;24.05;54.74
70826;SHT31;58446;41.490;22.098;2023-07-29T01:03:05;24.30;54.03
70826;SHT31;58446;41.490;22.098;2023-07-29T01:05:39;24.35;53.61
70826;SHT31;58446;41.490;22.098;2023-07-29T01:08:16;24.44;53.19
70826;SHT31;58446;41.490;22.098;2023-07-29T01:13:37;24.56;52.64
70826;SHT31;58446;41.490;22.098;2023-07-29T01:16:17;24.56;52.53
70826;SHT31;58446;41.490;22.098;2023-07-29T01:18:47;24.52;52.29
70826;SHT31;58446;41.490;22.098;2023-07-29T01:21:14;23.99;52.84
70826;SHT31;58446;41.490;22.098;2023-07-29T01:23:41;23.88;53.34
70826;SHT31;58446;41.490;22.098;2023-07-29T01:26:06;23.85;53.50
70826;SHT31;58446;41.490;22.098;2023-07-29T01:28:32;23.64;53.92
70826;SHT31;58446;41.490;22.098;2023-07-29T01:31:06;23.36;54.19
70826;SHT31;58446;41.490;22.098;2023-07-29T01:33:42;23.55;53.00
70826;SHT31;58446;41.490;22.098;2023-07-29T01:36:15;23.51;53.97
70826;SHT31;58446;41.490;22.098;2023-07-29T01:38:45;23.43;53.80
70826;SHT31;58446;41.490;22.098;2023-07-29T01:41:13;23.62;53.29
70826;SHT31;58446;41.490;22.098;2023-07-29T01:43:39;23.71;52.99
70826;SHT31;58446;41.490;22.098;2023-07-29T01:46:12;23.77;52.88
70826;SHT31;58446;41.490;22.098;2023-07-29T01:48:38;24.02;52.19
70826;SHT31;58446;41.490;22.098;2023-07-29T01:51:05;23.99;52.20
70826;SHT31;58446;41.490;22.098;2023-07-29T01:53:31;23.88;52.47
70826;SHT31;58446;41.490;22.098;2023-07-29T01:55:57;23.84;52.93
70826;SHT31;58446;41.490;22.098;2023-07-29T01:58:23;23.79;52.97
70826;SHT31;58446;41.490;22.098;2023-07-29T02:00:48;23.58;53.75
70826;SHT31;58446;41.490;22.098;2023-07-29T02:03:14;23.65;53.48
70826;SHT31;58446;41.490;22.098;2023-07-29T02:05:40;23.79;53.16
70826;SHT31;58446;41.490;22.098;2023-07-29T02:08:07;24.05;52.61
70826;SHT31;58446;41.490;22.098;2023-07-29T02:10:32;24.18;52.26
70826;SHT31;58446;41.490;22.098;2023-07-29T02:12:58;24.15;52.18
70826;SHT31;58446;41.490;22.098;2023-07-29T02:15:23;23.94;52.81
70826;SHT31;58446;41.490;22.098;2023-07-29T02:17:50;23.72;53.22
70826;SHT31;58446;41.490;22.098;2023-07-29T02:20:15;23.67;53.32
70826;SHT31;58446;41.490;22.098;2023-07-29T02:22:41;23.74;53.05
70826;SHT31;58446;41.490;22.098;2023-07-29T02:25:07;23.71;53.29
70826;SHT31;58446;41.490;22.098;2023-07-29T02:27:33;23.55;53.49
70826;SHT31;58446;41.490;22.098;2023-07-29T02:29:58;23.53;53.36
70826;SHT31;58446;41.490;22.098;2023-07-29T02:32:24;23.64;53.06
70826;SHT31;58446;41.490;22.098;2023-07-29T02:34:50;23.67;53.01
70826;SHT31;58446;41.490;22.098;2023-07-29T02:37:16;23.69;52.94
70826;SHT31;58446;41.490;22.098;2023-07-29T02:39:42;23.20;53.90
70826;SHT31;58446;41.490;22.098;2023-07-29T02:42:07;22.77;54.12
70826;SHT31;58446;41.490;22.098;2023-07-29T02:44:33;22.99;54.26
70826;SHT31;58446;41.490;22.098;2023-07-29T02:46:59;22.88;53.86
70826;SHT31;58446;41.490;22.098;2023-07-29T02:49:24;22.28;54.80
70826;SHT31;58446;41.490;22.098;2023-07-29T02:51:50;22.22;55.23
70826;SHT31;58446;41.490;22.098;2023-07-29T02:54:16;22.73;54.32
70826;SHT31;58446;41.490;22.098;2023-07-29T02:56:41;23.07;53.27
70826;SHT31;58446;41.490;22.098;2023-07-29T02:59:07;23.27;52.80
70826;SHT31;58446;41.490;22.098;2023-07-29T03:01:32;23.34;52.74
70826;SHT31;58446;41.490;22.098;2023-07-29T03:03:58;23.11;54.32
70826;SHT31;58446;41.490;22.098;2023-07-29T03:06:24;23.17;53.57
70826;SHT31;58446;41.490;22.098;2023-07-29T03:08:50;23.17;53.82
70826;SHT31;58446;41.490;22.098;2023-07-29T03:11:16;23.23;53.96
70826;SHT31;58446;41.490;22.098;2023-07-29T03:13:42;23.33;53.95
70826;SHT31;58446;41.490;22.098;2023-07-29T03:16:10;23.36;53.93
70826;SHT31;58446;41.490;22.098;2023-07-29T03:18:36;23.40;53.83
70826;SHT31;58446;41.490;22.098;2023-07-29T03:21:02;23.41;53.81
70826;SHT31;58446;41.490;22.098;2023-07-29T03:23:29;23.24;54.36
70826;SHT31;58446;41.490;22.098;2023-07-29T03:25:59;23.17;54.61
70826;SHT31;58446;41.490;22.098;2023-07-29T03:28:26;23.40;54.17
70826;SHT31;58446;41.490;22.098;2023-07-29T03:30:56;23.37;54.31
70826;SHT31;58446;41.490;22.098;2023-07-29T03:33:23;23.40;54.16
70826;SHT31;58446;41.490;22.098;2023-07-29T03:35:49;23.38;54.17
70826;SHT31;58446;41.490;22.098;2023-07-29T03:38:15;23.40;54.10
70826;SHT31;58446;41.490;22.098;2023-07-29T03:40:41;23.36;53.96
70826;SHT31;58446;41.490;22.098;2023-07-29T03:43:07;23.26;54.02
70826;SHT31;58446;41.490;22.098;2023-07-29T03:45:34;23.31;53.67
70826;SHT31;58446;41.490;22.098;2023-07-29T03:48:00;23.19;53.99
70826;SHT31;58446;41.490;22.098;2023-07-29T03:50:26;23.24;53.84
70826;SHT31;58446;41.490;22.098;2023-07-29T03:52:52;23.24;53.77
70826;SHT31;58446;41.490;22.098;2023-07-29T03:55:18;23.36;53.54
70826;SHT31;58446;41.490;22.098;2023-07-29T03:57:44;23.40;53.49
70826;SHT31;58446;41.490;22.098;2023-07-29T04:00:10;23.62;53.05
70826;SHT31;58446;41.490;22.098;2023-07-29T04:02:36;23.78;52.85
70826;SHT31;58446;41.490;22.098;2023-07-29T04:05:05;23.69;53.34
70826;SHT31;58446;41.490;22.098;2023-07-29T04:07:36;23.62;53.01
70826;SHT31;58446;41.490;22.098;2023-07-29T04:10:02;23.58;52.99
70826;SHT31;58446;41.490;22.098;2023-07-29T04:12:28;23.94;52.14
70826;SHT31;58446;41.490;22.098;2023-07-29T04:14:54;24.13;51.62
70826;SHT31;58446;41.490;22.098;2023-07-29T04:17:20;24.25;51.41
70826;SHT31;58446;41.490;22.098;2023-07-29T04:19:45;24.36;51.09
70826;SHT31;58446;41.490;22.098;2023-07-29T04:22:11;24.30;51.30
70826;SHT31;58446;41.490;22.098;2023-07-29T04:24:37;24.23;51.45
70826;SHT31;58446;41.490;22.098;2023-07-29T04:27:03;24.19;51.45
70826;SHT31;58446;41.490;22.098;2023-07-29T04:29:29;23.97;52.29
70826;SHT31;58446;41.490;22.098;2023-07-29T04:31:55;23.82;52.54
70826;SHT31;58446;41.490;22.098;2023-07-29T04:34:21;23.79;52.74
70826;SHT31;58446;41.490;22.098;2023-07-29T04:36:47;23.94;53.12
70826;SHT31;58446;41.490;22.098;2023-07-29T04:39:13;23.99;53.04
70826;SHT31;58446;41.490;22.098;2023-07-29T04:41:39;24.04;53.39
70826;SHT31;58446;41.490;22.098;2023-07-29T04:44:04;24.01;53.34
70826;SHT31;58446;41.490;22.098;2023-07-29T04:46:30;23.94;53.63
70826;SHT31;58446;41.490;22.098;2023-07-29T04:48:55;24.02;53.39
70826;SHT31;58446;41.490;22.098;2023-07-29T04:51:21;24.29;53.16
70826;SHT31;58446;41.490;22.098;2023-07-29T04:53:47;24.37;53.48
70826;SHT31;58446;41.490;22.098;2023-07-29T04:56:13;24.47;52.93
70826;SHT31;58446;41.490;22.098;2023-07-29T04:58:39;24.71;52.77
70826;SHT31;58446;41.490;22.098;2023-07-29T05:01:04;24.78;53.04
70826;SHT31;58446;41.490;22.098;2023-07-29T05:03:30;25.01;51.85
70826;SHT31;58446;41.490;22.098;2023-07-29T05:05:57;25.28;51.66
70826;SHT31;58446;41.490;22.098;2023-07-29T05:08:23;25.06;51.48
70826;SHT31;58446;41.490;22.098;2023-07-29T05:10:50;25.46;50.67
70826;SHT31;58446;41.490;22.098;2023-07-29T05:13:16;25.43;50.77
70826;SHT31;58446;41.490;22.098;2023-07-29T05:15:42;25.68;50.71
70826;SHT31;58446;41.490;22.098;2023-07-29T05:18:08;25.73;50.16
70826;SHT31;58446;41.490;22.098;2023-07-29T05:20:33;25.94;49.27
70826;SHT31;58446;41.490;22.098;2023-07-29T05:22:59;25.79;49.80
70826;SHT31;58446;41.490;22.098;2023-07-29T05:25:26;26.00;50.81
70826;SHT31;58446;41.490;22.098;2023-07-29T05:27:51;25.96;50.01
70826;SHT31;58446;41.490;22.098;2023-07-29T05:30:17;26.12;50.65
70826;SHT31;58446;41.490;22.098;2023-07-29T05:32:42;26.28;49.97
70826;SHT31;58446;41.490;22.098;2023-07-29T05:35:08;26.55;49.22
70826;SHT31;58446;41.490;22.098;2023-07-29T05:37:34;26.44;48.92
70826;SHT31;58446;41.490;22.098;2023-07-29T05:39:59;26.61;48.77
70826;SHT31;58446;41.490;22.098;2023-07-29T05:42:25;26.71;48.89
70826;SHT31;58446;41.490;22.098;2023-07-29T05:44:51;26.69;48.63
70826;SHT31;58446;41.490;22.098;2023-07-29T05:47:16;26.98;48.97
70826;SHT31;58446;41.490;22.098;2023-07-29T05:49:42;27.18;48.22
70826;SHT31;58446;41.490;22.098;2023-07-29T05:52:07;27.03;47.26
70826;SHT31;58446;41.490;22.098;2023-07-29T05:54:33;27.18;47.08
70826;SHT31;58446;41.490;22.098;2023-07-29T05:56:59;27.45;47.31
70826;SHT31;58446;41.490;22.098;2023-07-29T05:59:24;27.53;46.99
70826;SHT31;58446;41.490;22.098;2023-07-29T06:01:50;27.64;47.40
70826;SHT31;58446;41.490;22.098;2023-07-29T06:04:16;27.76;47.23
70826;SHT31;58446;41.490;22.098;2023-07-29T06:06:41;27.91;46.43
70826;SHT31;58446;41.490;22.098;2023-07-29T06:09:07;28.04;45.83
70826;SHT31;58446;41.490;22.098;2023-07-29T06:11:33;27.93;47.51
70826;SHT31;58446;41.490;22.098;2023-07-29T06:13:58;28.00;46.98
70826;SHT31;58446;41.490;22.098;2023-07-29T06:16:24;28.11;46.96
70826;SHT31;58446;41.490;22.098;2023-07-29T06:18:50;28.11;46.54
70826;SHT31;58446;41.490;22.098;2023-07-29T06:21:18;28.28;45.91
70826;SHT31;58446;41.490;22.098;2023-07-29T06:23:45;28.25;45.82
70826;SHT31;58446;41.490;22.098;2023-07-29T06:26:11;28.05;46.19
70826;SHT31;58446;41.490;22.098;2023-07-29T06:28:37;28.44;45.66
70826;SHT31;58446;41.490;22.098;2023-07-29T06:31:02;28.51;45.00
70826;SHT31;58446;41.490;22.098;2023-07-29T06:33:28;28.69;45.66
70826;SHT31;58446;41.490;22.098;2023-07-29T06:35:54;28.68;44.52
70826;SHT31;58446;41.490;22.098;2023-07-29T06:38:19;28.77;44.44
70826;SHT31;58446;41.490;22.098;2023-07-29T06:40:48;28.92;44.90
70826;SHT31;58446;41.490;22.098;2023-07-29T06:43:13;29.11;45.89
70826;SHT31;58446;41.490;22.098;2023-07-29T06:45:39;29.20;44.73
70826;SHT31;58446;41.490;22.098;2023-07-29T06:48:05;29.35;44.06
70826;SHT31;58446;41.490;22.098;2023-07-29T06:50:30;29.41;43.57
70826;SHT31;58446;41.490;22.098;2023-07-29T06:52:56;29.54;44.46
70826;SHT31;58446;41.490;22.098;2023-07-29T06:55:22;29.71;44.01
70826;SHT31;58446;41.490;22.098;2023-07-29T06:57:48;29.85;44.04
70826;SHT31;58446;41.490;22.098;2023-07-29T07:00:13;29.88;43.73
70826;SHT31;58446;41.490;22.098;2023-07-29T07:02:39;29.95;43.21
70826;SHT31;58446;41.490;22.098;2023-07-29T07:05:05;30.01;43.06
70826;SHT31;58446;41.490;22.098;2023-07-29T07:07:31;29.81;42.30
70826;SHT31;58446;41.490;22.098;2023-07-29T07:09:56;29.79;43.80
70826;SHT31;58446;41.490;22.098;2023-07-29T07:12:22;30.05;41.85
70826;SHT31;58446;41.490;22.098;2023-07-29T07:14:48;30.20;41.99
70826;SHT31;58446;41.490;22.098;2023-07-29T07:17:13;30.16;41.98
70826;SHT31;58446;41.490;22.098;2023-07-29T07:19:40;30.08;42.43
70826;SHT31;58446;41.490;22.098;2023-07-29T07:22:06;30.20;42.54
70826;SHT31;58446;41.490;22.098;2023-07-29T07:24:31;30.29;42.51
70826;SHT31;58446;41.490;22.098;2023-07-29T07:26:57;30.47;42.02
70826;SHT31;58446;41.490;22.098;2023-07-29T07:29:23;30.13;42.19
70826;SHT31;58446;41.490;22.098;2023-07-29T07:31:53;30.20;42.06
70826;SHT31;58446;41.490;22.098;2023-07-29T07:34:20;30.37;41.76
70826;SHT31;58446;41.490;22.098;2023-07-29T07:36:46;30.32;40.87
70826;SHT31;58446;41.490;22.098;2023-07-29T07:39:15;30.35;42.03
70826;SHT31;58446;41.490;22.098;2023-07-29T07:41:43;30.47;40.31
70826;SHT31;58446;41.490;22.098;2023-07-29T07:44:09;30.56;40.66
70826;SHT31;58446;41.490;22.098;2023-07-29T07:46:36;30.61;41.72
70826;SHT31;58446;41.490;22.098;2023-07-29T07:49:02;30.88;40.30
70826;SHT31;58446;41.490;22.098;2023-07-29T07:51:27;30.87;41.98
70826;SHT31;58446;41.490;22.098;2023-07-29T07:53:53;30.70;39.99
70826;SHT31;58446;41.490;22.098;2023-07-29T07:56:20;30.39;41.65
70826;SHT31;58446;41.490;22.098;2023-07-29T07:58:46;30.22;40.78
70826;SHT31;58446;41.490;22.098;2023-07-29T08:01:11;30.16;40.45
70826;SHT31;58446;41.490;22.098;2023-07-29T08:03:37;30.18;40.98
70826;SHT31;58446;41.490;22.098;2023-07-29T08:06:03;30.40;40.01
70826;SHT31;58446;41.490;22.098;2023-07-29T08:08:29;30.26;39.35
70826;SHT31;58446;41.490;22.098;2023-07-29T08:10:56;30.20;40.52
70826;SHT31;58446;41.490;22.098;2023-07-29T08:13:23;30.05;40.48
70826;SHT31;58446;41.490;22.098;2023-07-29T08:15:49;30.18;40.76
70826;SHT31;58446;41.490;22.098;2023-07-29T08:18:15;30.40;41.21
70826;SHT31;58446;41.490;22.098;2023-07-29T08:20:51;30.52;40.00
70826;SHT31;58446;41.490;22.098;2023-07-29T08:23:16;30.91;39.81
70826;SHT31;58446;41.490;22.098;2023-07-29T08:25:42;31.28;38.37
70826;SHT31;58446;41.490;22.098;2023-07-29T08:28:08;31.31;37.85
70826;SHT31;58446;41.490;22.098;2023-07-29T08:30:33;31.35;37.13
70826;SHT31;58446;41.490;22.098;2023-07-29T08:32:59;31.35;36.03
70826;SHT31;58446;41.490;22.098;2023-07-29T08:35:25;31.15;36.57
70826;SHT31;58446;41.490;22.098;2023-07-29T08:37:50;30.97;36.53
70826;SHT31;58446;41.490;22.098;2023-07-29T08:40:16;30.78;37.37
70826;SHT31;58446;41.490;22.098;2023-07-29T08:42:45;30.78;37.76
70826;SHT31;58446;41.490;22.098;2023-07-29T08:45:12;31.05;38.77
70826;SHT31;58446;41.490;22.098;2023-07-29T08:47:39;31.07;37.40
70826;SHT31;58446;41.490;22.098;2023-07-29T08:50:05;31.21;37.54
70826;SHT31;58446;41.490;22.098;2023-07-29T08:52:33;31.24;38.23
70826;SHT31;58446;41.490;22.098;2023-07-29T08:55:00;31.34;37.84
70826;SHT31;58446;41.490;22.098;2023-07-29T08:57:27;31.27;37.37
70826;SHT31;58446;41.490;22.098;2023-07-29T08:59:54;31.41;37.33
70826;SHT31;58446;41.490;22.098;2023-07-29T09:02:20;31.58;37.18
70826;SHT31;58446;41.490;22.098;2023-07-29T09:04:46;31.53;36.90
70826;SHT31;58446;41.490;22.098;2023-07-29T09:07:12;31.10;37.71
70826;SHT31;58446;41.490;22.098;2023-07-29T09:09:38;31.31;38.70
70826;SHT31;58446;41.490;22.098;2023-07-29T09:12:04;31.55;37.44
70826;SHT31;58446;41.490;22.098;2023-07-29T09:14:30;31.39;38.01
70826;SHT31;58446;41.490;22.098;2023-07-29T09:16:55;31.73;37.83
70826;SHT31;58446;41.490;22.098;2023-07-29T09:19:25;31.80;36.64
70826;SHT31;58446;41.490;22.098;2023-07-29T09:21:51;31.55;37.05
70826;SHT31;58446;41.490;22.098;2023-07-29T09:24:17;31.49;36.93
70826;SHT31;58446;41.490;22.098;2023-07-29T09:26:54;31.56;36.60
70826;SHT31;58446;41.490;22.098;2023-07-29T09:29:23;31.59;36.78
70826;SHT31;58446;41.490;22.098;2023-07-29T09:31:49;31.52;36.99
70826;SHT31;58446;41.490;22.098;2023-07-29T09:34:15;31.72;38.19
70826;SHT31;58446;41.490;22.098;2023-07-29T09:36:42;31.98;37.74
70826;SHT31;58446;41.490;22.098;2023-07-29T09:39:12;32.07;37.76
70826;SHT31;58446;41.490;22.098;2023-07-29T09:41:38;32.23;36.25
70826;SHT31;58446;41.490;22.098;2023-07-29T09:44:06;32.30;35.57
70826;SHT31;58446;41.490;22.098;2023-07-29T09:46:37;32.19;36.63
70826;SHT31;58446;41.490;22.098;2023-07-29T09:49:04;32.23;34.84
70826;SHT31;58446;41.490;22.098;2023-07-29T09:51:31;32.12;34.63
70826;SHT31;58446;41.490;22.098;2023-07-29T09:53:56;32.23;35.25
70826;SHT31;58446;41.490;22.098;2023-07-29T09:56:25;32.31;35.26
70826;SHT31;58446;41.490;22.098;2023-07-29T09:58:52;32.40;36.71
70826;SHT31;58446;41.490;22.098;2023-07-29T10:01:18;32.45;35.32
70826;SHT31;58446;41.490;22.098;2023-07-29T10:03:45;32.17;35.52
70826;SHT31;58446;41.490;22.098;2023-07-29T10:06:12;32.28;35.44
70826;SHT31;58446;41.490;22.098;2023-07-29T10:08:39;32.26;34.09
70826;SHT31;58446;41.490;22.098;2023-07-29T10:11:10;32.31;33.93
70826;SHT31;58446;41.490;22.098;2023-07-29T10:13:36;32.28;34.81
70826;SHT31;58446;41.490;22.098;2023-07-29T10:16:03;32.38;33.61
70826;SHT31;58446;41.490;22.098;2023-07-29T10:18:31;32.34;33.71
70826;SHT31;58446;41.490;22.098;2023-07-29T10:20:59;32.38;33.98
70826;SHT31;58446;41.490;22.098;2023-07-29T10:23:26;32.54;33.67
70826;SHT31;58446;41.490;22.098;2023-07-29T10:26:08;32.67;34.38
70826;SHT31;58446;41.490;22.098;2023-07-29T10:28:40;32.86;36.14
70826;SHT31;58446;41.490;22.098;2023-07-29T10:31:07;32.89;36.24
70826;SHT31;58446;41.490;22.098;2023-07-29T10:33:34;32.96;35.02
70826;SHT31;58446;41.490;22.098;2023-07-29T10:36:00;32.99;34.89
70826;SHT31;58446;41.490;22.098;2023-07-29T10:38:26;33.16;34.84
70826;SHT31;58446;41.490;22.098;2023-07-29T10:40:54;33.08;34.43
70826;SHT31;58446;41.490;22.098;2023-07-29T10:45:56;33.22;34.26
70826;SHT31;58446;41.490;22.098;2023-07-29T10:51:36;33.26;31.62
70826;SHT31;58446;41.490;22.098;2023-07-29T10:54:09;33.12;33.08
70826;SHT31;58446;41.490;22.098;2023-07-29T10:56:36;33.32;33.24
70826;SHT31;58446;41.490;22.098;2023-07-29T11:01:39;33.18;31.22
70826;SHT31;58446;41.490;22.098;2023-07-29T11:12:45;33.32;34.87
70826;SHT31;58446;41.490;22.098;2023-07-29T11:15:12;33.47;31.03
70826;SHT31;58446;41.490;22.098;2023-07-29T11:17:57;33.53;32.53
70826;SHT31;58446;41.490;22.098;2023-07-29T11:20:28;33.66;32.89
70826;SHT31;58446;41.490;22.098;2023-07-29T11:22:55;33.83;31.48
70826;SHT31;58446;41.490;22.098;2023-07-29T11:25:22;34.03;31.89
70826;SHT31;58446;41.490;22.098;2023-07-29T11:27:50;34.04;30.88
70826;SHT31;58446;41.490;22.098;2023-07-29T11:30:16;34.25;31.46
70826;SHT31;58446;41.490;22.098;2023-07-29T11:32:43;34.38;28.15
70826;SHT31;58446;41.490;22.098;2023-07-29T11:35:14;34.27;29.49
70826;SHT31;58446;41.490;22.098;2023-07-29T11:37:46;34.14;28.46
70826;SHT31;58446;41.490;22.098;2023-07-29T11:40:18;34.08;29.44
70826;SHT31;58446;41.490;22.098;2023-07-29T11:42:46;34.13;28.49
70826;SHT31;58446;41.490;22.098;2023-07-29T11:45:13;34.13;30.45
70826;SHT31;58446;41.490;22.098;2023-07-29T11:47:39;34.24;27.75
70826;SHT31;58446;41.490;22.098;2023-07-29T11:50:06;34.34;28.07
70826;SHT31;58446;41.490;22.098;2023-07-29T11:52:35;34.23;27.51
70826;SHT31;58446;41.490;22.098;2023-07-29T11:55:02;34.25;29.28
70826;SHT31;58446;41.490;22.098;2023-07-29T11:57:33;34.18;27.42
70826;SHT31;58446;41.490;22.098;2023-07-29T12:00:02;34.13;28.27
70826;SHT31;58446;41.490;22.098;2023-07-29T12:02:29;34.14;27.81
70826;SHT31;58446;41.490;22.098;2023-07-29T12:04:57;34.05;28.23
70826;SHT31;58446;41.490;22.098;2023-07-29T12:07:23;34.05;26.52
70826;SHT31;58446;41.490;22.098;2023-07-29T12:09:49;34.15;27.37
70826;SHT31;58446;41.490;22.098;2023-07-29T12:12:15;34.18;27.32
70826;SHT31;58446;41.490;22.098;2023-07-29T12:14:47;34.25;27.38
70826;SHT31;58446;41.490;22.098;2023-07-29T12:17:13;34.31;27.11
70826;SHT31;58446;41.490;22.098;2023-07-29T12:19:40;34.31;27.71
70826;SHT31;58446;41.490;22.098;2023-07-29T12:22:07;34.31;27.78
70826;SHT31;58446;41.490;22.098;2023-07-29T12:24:35;34.51;28.10
70826;SHT31;58446;41.490;22.098;2023-07-29T12:27:00;34.48;27.57
70826;SHT31;58446;41.490;22.098;2023-07-29T12:29:26;34.42;27.59
70826;SHT31;58446;41.490;22.098;2023-07-29T12:32:00;34.31;27.91
70826;SHT31;58446;41.490;22.098;2023-07-29T12:34:27;34.24;28.35
70826;SHT31;58446;41.490;22.098;2023-07-29T12:36:58;34.20;28.83
70826;SHT31;58446;41.490;22.098;2023-07-29T12:39:28;34.24;28.72
70826;SHT31;58446;41.490;22.098;2023-07-29T12:41:58;34.31;28.40
70826;SHT31;58446;41.490;22.098;2023-07-29T12:44:25;34.14;28.82
70826;SHT31;58446;41.490;22.098;2023-07-29T12:46:51;34.15;28.55
70826;SHT31;58446;41.490;22.098;2023-07-29T12:49:17;34.28;28.86
70826;SHT31;58446;41.490;22.098;2023-07-29T12:51:43;34.27;28.69
70826;SHT31;58446;41.490;22.098;2023-07-29T12:54:09;34.34;28.78
70826;SHT31;58446;41.490;22.098;2023-07-29T12:56:35;34.05;29.50
70826;SHT31;58446;41.490;22.098;2023-07-29T12:59:01;34.38;29.58
70826;SHT31;58446;41.490;22.098;2023-07-29T13:01:27;34.54;29.79
70826;SHT31;58446;41.490;22.098;2023-07-29T13:03:53;34.71;29.66
70826;SHT31;58446;41.490;22.098;2023-07-29T13:06:19;34.75;28.52
70826;SHT31;58446;41.490;22.098;2023-07-29T13:08:47;34.82;28.35
70826;SHT31;58446;41.490;22.098;2023-07-29T13:11:14;34.99;28.48
70826;SHT31;58446;41.490;22.098;2023-07-29T13:13:40;35.02;27.73
70826;SHT31;58446;41.490;22.098;2023-07-29T13:16:05;34.99;27.91
70826;SHT31;58446;41.490;22.098;2023-07-29T13:18:32;35.05;27.05
70826;SHT31;58446;41.490;22.098;2023-07-29T13:20:58;35.09;27.98
70826;SHT31;58446;41.490;22.098;2023-07-29T13:23:26;35.00;28.45
70826;SHT31;58446;41.490;22.098;2023-07-29T13:25:52;35.03;27.05
70826;SHT31;58446;41.490;22.098;2023-07-29T13:28:18;35.12;27.33
70826;SHT31;58446;41.490;22.098;2023-07-29T13:30:44;35.13;26.95
70826;SHT31;58446;41.490;22.098;2023-07-29T13:33:10;35.10;26.94
70826;SHT31;58446;41.490;22.098;2023-07-29T13:35:36;35.07;27.38
70826;SHT31;58446;41.490;22.098;2023-07-29T13:38:02;35.13;27.60
70826;SHT31;58446;41.490;22.098;2023-07-29T13:40:28;35.17;27.93
70826;SHT31;58446;41.490;22.098;2023-07-29T13:42:54;35.23;27.32
70826;SHT31;58446;41.490;22.098;2023-07-29T13:45:20;35.32;27.53
70826;SHT31;58446;41.490;22.098;2023-07-29T13:47:46;35.42;27.76
70826;SHT31;58446;41.490;22.098;2023-07-29T13:50:12;35.40;27.76
70826;SHT31;58446;41.490;22.098;2023-07-29T13:52:38;35.47;27.60
70826;SHT31;58446;41.490;22.098;2023-07-29T13:55:04;35.50;27.04
70826;SHT31;58446;41.490;22.098;2023-07-29T13:57:33;35.43;27.46
70826;SHT31;58446;41.490;22.098;2023-07-29T13:59:59;35.40;27.53
70826;SHT31;58446;41.490;22.098;2023-07-29T14:02:24;35.44;28.55
70826;SHT31;58446;41.490;22.098;2023-07-29T14:04:54;35.32;27.97
70826;SHT31;58446;41.490;22.098;2023-07-29T14:07:19;35.40;27.94
70826;SHT31;58446;41.490;22.098;2023-07-29T14:09:45;35.46;28.68
70826;SHT31;58446;41.490;22.098;2023-07-29T14:12:11;35.53;27.81
70826;SHT31;58446;41.490;22.098;2023-07-29T14:14:38;35.47;27.37
70826;SHT31;58446;41.490;22.098;2023-07-29T14:17:04;35.46;27.78
70826;SHT31;58446;41.490;22.098;2023-07-29T14:19:31;35.25;27.41
70826;SHT31;58446;41.490;22.098;2023-07-29T14:21:57;35.30;27.74
70826;SHT31;58446;41.490;22.098;2023-07-29T14:24:23;35.30;27.39
70826;SHT31;58446;41.490;22.098;2023-07-29T14:26:49;35.32;28.01
70826;SHT31;58446;41.490;22.098;2023-07-29T14:29:14;35.36;26.74
70826;SHT31;58446;41.490;22.098;2023-07-29T14:31:40;35.30;26.62
70826;SHT31;58446;41.490;22.098;2023-07-29T14:34:05;35.30;26.43
70826;SHT31;58446;41.490;22.098;2023-07-29T14:36:31;35.19;26.18
70826;SHT31;58446;41.490;22.098;2023-07-29T14:38:57;35.23;26.30
70826;SHT31;58446;41.490;22.098;2023-07-29T14:41:22;35.37;26.28
70826;SHT31;58446;41.490;22.098;2023-07-29T14:43:48;35.19;25.95
70826;SHT31;58446;41.490;22.098;2023-07-29T14:46:14;35.06;26.63
70826;SHT31;58446;41.490;22.098;2023-07-29T14:48:39;34.98;26.39
70826;SHT31;58446;41.490;22.098;2023-07-29T14:51:05;35.02;26.22
70826;SHT31;58446;41.490;22.098;2023-07-29T14:53:31;35.07;25.91
70826;SHT31;58446;41.490;22.098;2023-07-29T14:55:56;35.12;25.22
70826;SHT31;58446;41.490;22.098;2023-07-29T14:58:22;35.14;25.74
70826;SHT31;58446;41.490;22.098;2023-07-29T15:00:51;35.09;26.39
70826;SHT31;58446;41.490;22.098;2023-07-29T15:03:16;35.07;26.39
70826;SHT31;58446;41.490;22.098;2023-07-29T15:05:42;34.95;25.82
70826;SHT31;58446;41.490;22.098;2023-07-29T15:08:08;34.86;26.21
70826;SHT31;58446;41.490;22.098;2023-07-29T15:10:34;34.82;25.93
70826;SHT31;58446;41.490;22.098;2023-07-29T15:12:59;34.83;25.58
70826;SHT31;58446;41.490;22.098;2023-07-29T15:15:25;34.93;26.28
70826;SHT31;58446;41.490;22.098;2023-07-29T15:17:50;35.00;27.00
70826;SHT31;58446;41.490;22.098;2023-07-29T15:20:16;35.07;26.29
70826;SHT31;58446;41.490;22.098;2023-07-29T15:22:42;35.06;26.11
70826;SHT31;58446;41.490;22.098;2023-07-29T15:25:09;34.98;26.96
70826;SHT31;58446;41.490;22.098;2023-07-29T15:27:35;34.88;26.93
70826;SHT31;58446;41.490;22.098;2023-07-29T15:30:01;34.95;25.41
70826;SHT31;58446;41.490;22.098;2023-07-29T15:32:27;34.99;26.57